Allemand, Louisiana
Current Conditions -  °F | °C
As of 6:15 PM on Thursday 27 Nov 2014 (Local Time) from KHUM Reporting Station
Clear Clear  
Wind Chill: 10°   Ceiling: Unl
Heat Index: 10°   Visibility: 10mi
Dew Point:   Wind: 3mph
Humidity: 53%   Direction: 350°N
Pressure: 30.42"   Gusts: NA
Location:  29.5867°N, 90.8252°W
Report Text: KHUM 280015Z AUTO 35003KT 10SM CLR 10/01 A3042 RMK AO2 T01040012
Loading
Personal Weather Stations






























Interactive Weather Map New forecast layout! Learn more

10-Day Weather Forecast

Advertisements
Track Severe Weather on mobile